Humidity-temperature Sensor

Selected Measurement Type: Air Temperature

 
Air Temperature [°C]     6 entries per hour
Showing data from 8/20/2017 (00:00:00 Z) to 8/19/2017 (00:01:00 Z)
Previous Next [ Day | 3-Days | 7-Days ]
First Last
Prev [ Day | 3-Days | 7-Days ] Next
First Last

Start Time:     :
End Time:     :     
Time (in GMT) :00 :50 :40 :30 :20 :10
Previous Next [ Day | 3-Days | 7-Days ]
First Last
Prev [ Day | 3-Days | 7-Days ] Next
First Last


123 => good data
MM => data is determined as missing
-- => data not received/configured
Back to Top Back to Top
8/20/2017 00:00 to 23:10 27.81 27.69 27.71 27.70 27.44 27.18
8/19/2017 23:00 to 22:10 27.18 27.15 26.87 27.74 28.04 27.84
8/19/2017 22:00 to 21:10 27.56 27.12 27.49 27.49 28.37 28.14
8/19/2017 21:00 to 20:10 28.03 27.91 27.66 27.45 27.08 26.62
8/19/2017 20:00 to 19:10 27.62 27.82 28.01 28.12 28.27 27.91
8/19/2017 19:00 to 18:10 27.70 27.52 27.30 27.56 27.44 27.25
8/19/2017 18:00 to 17:10 27.05 26.73 26.58 26.66 26.82 26.55
8/19/2017 17:00 to 16:10 26.29 27.65 27.75 27.44 27.76 27.80
8/19/2017 16:00 to 15:10 27.81 27.77 27.85 28.34 28.38 28.29
8/19/2017 15:00 to 14:10 28.25 28.03 28.35 28.29 28.32 28.49
8/19/2017 14:00 to 13:10 28.41 28.41 28.48 28.42 28.35 28.48
8/19/2017 13:00 to 12:10 28.40 28.43 28.46 28.20 28.13 28.00
8/19/2017 12:00 to 11:10 28.02 27.88 27.83 28.03 28.01 28.02
8/19/2017 11:00 to 10:10 28.17 28.28 28.24 28.17 28.31 28.34
8/19/2017 10:00 to 9:10 28.30 28.42 28.43 28.33 28.10 27.89
8/19/2017 09:00 to 8:10 27.97 27.91 28.59 28.48 28.52 28.53
8/19/2017 08:00 to 7:10 28.71 28.63 28.52 28.48 28.48 28.53
8/19/2017 07:00 to 6:10 28.41 28.32 28.27 28.33 28.17 28.19
8/19/2017 06:00 to 5:10 28.20 28.48 28.80 28.77 28.72 28.74
8/19/2017 05:00 to 4:10 28.96 29.06 29.14 29.06 28.92 28.82
8/19/2017 04:00 to 3:10 29.33 28.74 28.77 29.04 28.78 28.85
8/19/2017 03:00 to 2:10 28.85 28.84 28.85 28.77 28.73 28.71
8/19/2017 02:00 to 1:10 28.63 28.58 28.56 28.55 28.65 28.54
8/19/2017 01:00 to 0:10 28.47 28.56 28.51 28.50 28.49 28.50